sensor_id;sensor_type;location;lat;lon;timestamp;P1;P2;P0
55276;PMS5003;41136;51.478;-2.610;2023-04-03T00:00:56;8;8;
55276;PMS5003;41136;51.478;-2.610;2023-04-03T00:03:22;7;7;
55276;PMS5003;41136;51.478;-2.610;2023-04-03T00:05:47;10;8;
55276;PMS5003;41136;51.478;-2.610;2023-04-03T00:08:13;9;7;
55276;PMS5003;41136;51.478;-2.610;2023-04-03T00:10:38;9;9;
55276;PMS5003;41136;51.478;-2.610;2023-04-03T00:13:03;9;8;
55276;PMS5003;41136;51.478;-2.610;2023-04-03T00:15:29;7;7;
55276;PMS5003;41136;51.478;-2.610;2023-04-03T00:17:54;8;7;
55276;PMS5003;41136;51.478;-2.610;2023-04-03T00:20:19;11;9;
55276;PMS5003;41136;51.478;-2.610;2023-04-03T00:22:45;10;7;
55276;PMS5003;41136;51.478;-2.610;2023-04-03T00:25:10;10;9;
55276;PMS5003;41136;51.478;-2.610;2023-04-03T00:27:36;7;7;
55276;PMS5003;41136;51.478;-2.610;2023-04-03T00:30:01;7;7;
55276;PMS5003;41136;51.478;-2.610;2023-04-03T00:32:26;8;8;
55276;PMS5003;41136;51.478;-2.610;2023-04-03T00:34:52;10;9;
55276;PMS5003;41136;51.478;-2.610;2023-04-03T00:37:17;9;9;
55276;PMS5003;41136;51.478;-2.610;2023-04-03T00:39:43;7;7;
55276;PMS5003;41136;51.478;-2.610;2023-04-03T00:42:08;9;8;
55276;PMS5003;41136;51.478;-2.610;2023-04-03T00:46:59;10;7;
55276;PMS5003;41136;51.478;-2.610;2023-04-03T00:49:25;9;7;
55276;PMS5003;41136;51.478;-2.610;2023-04-03T00:51:50;6;6;
55276;PMS5003;41136;51.478;-2.610;2023-04-03T00:54:15;11;8;
55276;PMS5003;41136;51.478;-2.610;2023-04-03T00:56:40;7;7;
55276;PMS5003;41136;51.478;-2.610;2023-04-03T00:59:08;9;7;
55276;PMS5003;41136;51.478;-2.610;2023-04-03T01:01:31;10;7;
55276;PMS5003;41136;51.478;-2.610;2023-04-03T01:03:58;8;8;
55276;PMS5003;41136;51.478;-2.610;2023-04-03T01:06:24;14;10;
55276;PMS5003;41136;51.478;-2.610;2023-04-03T01:08:47;9;7;
55276;PMS5003;41136;51.478;-2.610;2023-04-03T01:11:13;13;10;
55276;PMS5003;41136;51.478;-2.610;2023-04-03T01:13:38;10;9;
55276;PMS5003;41136;51.478;-2.610;2023-04-03T01:16:04;11;8;
55276;PMS5003;41136;51.478;-2.610;2023-04-03T01:18:29;8;8;
55276;PMS5003;41136;51.478;-2.610;2023-04-03T01:23:25;8;8;
55276;PMS5003;41136;51.478;-2.610;2023-04-03T01:25:46;8;8;
55276;PMS5003;41136;51.478;-2.610;2023-04-03T01:28:12;7;7;
55276;PMS5003;41136;51.478;-2.610;2023-04-03T01:30:40;10;10;
55276;PMS5003;41136;51.478;-2.610;2023-04-03T01:33:02;7;7;
55276;PMS5003;41136;51.478;-2.610;2023-04-03T01:35:27;11;9;
55276;PMS5003;41136;51.478;-2.610;2023-04-03T01:37:52;14;11;
55276;PMS5003;41136;51.478;-2.610;2023-04-03T01:40:18;11;9;
55276;PMS5003;41136;51.478;-2.610;2023-04-03T01:42:43;7;7;
55276;PMS5003;41136;51.478;-2.610;2023-04-03T01:45:09;10;8;
55276;PMS5003;41136;51.478;-2.610;2023-04-03T01:47:34;8;8;
55276;PMS5003;41136;51.478;-2.610;2023-04-03T01:50:00;10;9;
55276;PMS5003;41136;51.478;-2.610;2023-04-03T01:52:25;7;7;
55276;PMS5003;41136;51.478;-2.610;2023-04-03T01:54:50;15;10;
55276;PMS5003;41136;51.478;-2.610;2023-04-03T01:57:16;11;9;
55276;PMS5003;41136;51.478;-2.610;2023-04-03T01:59:41;10;9;
55276;PMS5003;41136;51.478;-2.610;2023-04-03T02:02:07;11;10;
55276;PMS5003;41136;51.478;-2.610;2023-04-03T02:04:32;9;9;
55276;PMS5003;41136;51.478;-2.610;2023-04-03T02:06:57;8;8;
55276;PMS5003;41136;51.478;-2.610;2023-04-03T02:09:23;8;8;
55276;PMS5003;41136;51.478;-2.610;2023-04-03T02:11:48;9;9;
55276;PMS5003;41136;51.478;-2.610;2023-04-03T02:14:14;10;10;
55276;PMS5003;41136;51.478;-2.610;2023-04-03T02:16:39;9;7;
55276;PMS5003;41136;51.478;-2.610;2023-04-03T02:19:04;9;9;
55276;PMS5003;41136;51.478;-2.610;2023-04-03T02:21:30;13;9;
55276;PMS5003;41136;51.478;-2.610;2023-04-03T02:23:55;13;10;
55276;PMS5003;41136;51.478;-2.610;2023-04-03T02:26:21;9;9;
55276;PMS5003;41136;51.478;-2.610;2023-04-03T02:28:46;10;10;
55276;PMS5003;41136;51.478;-2.610;2023-04-03T02:31:12;12;9;
55276;PMS5003;41136;51.478;-2.610;2023-04-03T02:33:37;7;7;
55276;PMS5003;41136;51.478;-2.610;2023-04-03T02:36:03;9;9;
55276;PMS5003;41136;51.478;-2.610;2023-04-03T02:38:28;11;9;
55276;PMS5003;41136;51.478;-2.610;2023-04-03T02:43:19;13;10;
55276;PMS5003;41136;51.478;-2.610;2023-04-03T02:45:45;10;8;
55276;PMS5003;41136;51.478;-2.610;2023-04-03T02:48:10;14;12;
55276;PMS5003;41136;51.478;-2.610;2023-04-03T02:50:35;10;9;
55276;PMS5003;41136;51.478;-2.610;2023-04-03T02:53:01;7;7;
55276;PMS5003;41136;51.478;-2.610;2023-04-03T02:55:26;12;11;
55276;PMS5003;41136;51.478;-2.610;2023-04-03T02:57:52;9;9;
55276;PMS5003;41136;51.478;-2.610;2023-04-03T03:00:17;7;7;
55276;PMS5003;41136;51.478;-2.610;2023-04-03T03:02:42;8;8;
55276;PMS5003;41136;51.478;-2.610;2023-04-03T03:05:08;12;9;
55276;PMS5003;41136;51.478;-2.610;2023-04-03T03:07:34;11;9;
55276;PMS5003;41136;51.478;-2.610;2023-04-03T03:09:59;8;8;
55276;PMS5003;41136;51.478;-2.610;2023-04-03T03:12:24;7;6;
55276;PMS5003;41136;51.478;-2.610;2023-04-03T03:14:50;12;12;
55276;PMS5003;41136;51.478;-2.610;2023-04-03T03:17:15;9;9;
55276;PMS5003;41136;51.478;-2.610;2023-04-03T03:19:41;12;9;
55276;PMS5003;41136;51.478;-2.610;2023-04-03T03:22:06;8;8;
55276;PMS5003;41136;51.478;-2.610;2023-04-03T03:24:31;14;10;
55276;PMS5003;41136;51.478;-2.610;2023-04-03T03:26:57;12;12;
55276;PMS5003;41136;51.478;-2.610;2023-04-03T03:31:29;6;6;
55276;PMS5003;41136;51.478;-2.610;2023-04-03T03:33:55;6;6;
55276;PMS5003;41136;51.478;-2.610;2023-04-03T03:36:20;9;8;
55276;PMS5003;41136;51.478;-2.610;2023-04-03T03:38:45;8;7;
55276;PMS5003;41136;51.478;-2.610;2023-04-03T03:41:10;13;11;
55276;PMS5003;41136;51.478;-2.610;2023-04-03T03:43:36;8;8;
55276;PMS5003;41136;51.478;-2.610;2023-04-03T03:46:01;9;9;
55276;PMS5003;41136;51.478;-2.610;2023-04-03T03:48:26;12;9;
55276;PMS5003;41136;51.478;-2.610;2023-04-03T03:50:52;11;11;
55276;PMS5003;41136;51.478;-2.610;2023-04-03T03:53:17;10;9;
55276;PMS5003;41136;51.478;-2.610;2023-04-03T03:55:42;7;7;
55276;PMS5003;41136;51.478;-2.610;2023-04-03T03:58:08;7;7;
55276;PMS5003;41136;51.478;-2.610;2023-04-03T04:00:33;12;9;
55276;PMS5003;41136;51.478;-2.610;2023-04-03T04:02:58;8;8;
55276;PMS5003;41136;51.478;-2.610;2023-04-03T04:05:24;9;9;
55276;PMS5003;41136;51.478;-2.610;2023-04-03T04:07:49;12;11;
55276;PMS5003;41136;51.478;-2.610;2023-04-03T04:10:15;8;8;
55276;PMS5003;41136;51.478;-2.610;2023-04-03T04:12:40;8;8;
55276;PMS5003;41136;51.478;-2.610;2023-04-03T04:15:06;12;9;
55276;PMS5003;41136;51.478;-2.610;2023-04-03T04:17:31;11;11;
55276;PMS5003;41136;51.478;-2.610;2023-04-03T04:19:56;9;9;
55276;PMS5003;41136;51.478;-2.610;2023-04-03T04:22:22;12;12;
55276;PMS5003;41136;51.478;-2.610;2023-04-03T04:24:47;8;8;
55276;PMS5003;41136;51.478;-2.610;2023-04-03T04:27:13;11;8;
55276;PMS5003;41136;51.478;-2.610;2023-04-03T04:29:38;9;9;
55276;PMS5003;41136;51.478;-2.610;2023-04-03T04:32:04;12;11;
55276;PMS5003;41136;51.478;-2.610;2023-04-03T04:34:29;13;13;
55276;PMS5003;41136;51.478;-2.610;2023-04-03T04:36:54;11;11;
55276;PMS5003;41136;51.478;-2.610;2023-04-03T04:39:19;15;14;
55276;PMS5003;41136;51.478;-2.610;2023-04-03T04:41:45;11;8;
55276;PMS5003;41136;51.478;-2.610;2023-04-03T04:44:10;10;10;
55276;PMS5003;41136;51.478;-2.610;2023-04-03T04:46:36;14;13;
55276;PMS5003;41136;51.478;-2.610;2023-04-03T04:49:01;11;9;
55276;PMS5003;41136;51.478;-2.610;2023-04-03T04:51:27;10;10;
55276;PMS5003;41136;51.478;-2.610;2023-04-03T04:53:52;11;11;
55276;PMS5003;41136;51.478;-2.610;2023-04-03T04:56:18;12;11;
55276;PMS5003;41136;51.478;-2.610;2023-04-03T04:58:43;11;10;
55276;PMS5003;41136;51.478;-2.610;2023-04-03T05:01:09;8;8;
55276;PMS5003;41136;51.478;-2.610;2023-04-03T05:03:34;11;8;
55276;PMS5003;41136;51.478;-2.610;2023-04-03T05:05:59;12;11;
55276;PMS5003;41136;51.478;-2.610;2023-04-03T05:08:24;11;8;
55276;PMS5003;41136;51.478;-2.610;2023-04-03T05:10:50;12;12;
55276;PMS5003;41136;51.478;-2.610;2023-04-03T05:13:15;10;10;
55276;PMS5003;41136;51.478;-2.610;2023-04-03T05:15:41;13;13;
55276;PMS5003;41136;51.478;-2.610;2023-04-03T05:18:06;11;7;
55276;PMS5003;41136;51.478;-2.610;2023-04-03T05:20:31;13;11;
55276;PMS5003;41136;51.478;-2.610;2023-04-03T05:22:57;9;9;
55276;PMS5003;41136;51.478;-2.610;2023-04-03T05:25:22;13;11;
55276;PMS5003;41136;51.478;-2.610;2023-04-03T05:27:48;11;9;
55276;PMS5003;41136;51.478;-2.610;2023-04-03T05:30:13;10;10;
55276;PMS5003;41136;51.478;-2.610;2023-04-03T05:32:39;14;12;
55276;PMS5003;41136;51.478;-2.610;2023-04-03T05:35:04;16;15;
55276;PMS5003;41136;51.478;-2.610;2023-04-03T05:37:29;8;8;
55276;PMS5003;41136;51.478;-2.610;2023-04-03T05:39:55;10;10;
55276;PMS5003;41136;51.478;-2.610;2023-04-03T05:42:20;11;10;
55276;PMS5003;41136;51.478;-2.610;2023-04-03T05:44:45;8;7;
55276;PMS5003;41136;51.478;-2.610;2023-04-03T05:47:11;14;10;
55276;PMS5003;41136;51.478;-2.610;2023-04-03T05:49:36;10;10;
55276;PMS5003;41136;51.478;-2.610;2023-04-03T05:52:02;9;8;
55276;PMS5003;41136;51.478;-2.610;2023-04-03T05:54:28;12;10;
55276;PMS5003;41136;51.478;-2.610;2023-04-03T05:56:53;9;9;
55276;PMS5003;41136;51.478;-2.610;2023-04-03T05:59:19;11;10;
55276;PMS5003;41136;51.478;-2.610;2023-04-03T06:01:44;11;10;
55276;PMS5003;41136;51.478;-2.610;2023-04-03T06:04:09;12;9;
55276;PMS5003;41136;51.478;-2.610;2023-04-03T06:09:00;13;10;
55276;PMS5003;41136;51.478;-2.610;2023-04-03T06:11:26;11;11;
55276;PMS5003;41136;51.478;-2.610;2023-04-03T06:13:51;15;14;
55276;PMS5003;41136;51.478;-2.610;2023-04-03T06:16:16;10;10;
55276;PMS5003;41136;51.478;-2.610;2023-04-03T06:18:41;12;8;
55276;PMS5003;41136;51.478;-2.610;2023-04-03T06:21:07;19;12;
55276;PMS5003;41136;51.478;-2.610;2023-04-03T06:23:32;17;12;
55276;PMS5003;41136;51.478;-2.610;2023-04-03T06:25:58;8;7;
55276;PMS5003;41136;51.478;-2.610;2023-04-03T06:28:23;7;7;
55276;PMS5003;41136;51.478;-2.610;2023-04-03T06:30:48;13;10;
55276;PMS5003;41136;51.478;-2.610;2023-04-03T06:33:13;7;7;
55276;PMS5003;41136;51.478;-2.610;2023-04-03T06:35:39;7;7;
55276;PMS5003;41136;51.478;-2.610;2023-04-03T06:38:04;13;10;
55276;PMS5003;41136;51.478;-2.610;2023-04-03T06:40:30;8;8;
55276;PMS5003;41136;51.478;-2.610;2023-04-03T06:42:55;11;10;
55276;PMS5003;41136;51.478;-2.610;2023-04-03T06:45:21;8;8;
55276;PMS5003;41136;51.478;-2.610;2023-04-03T06:47:46;9;9;
55276;PMS5003;41136;51.478;-2.610;2023-04-03T06:50:12;10;10;
55276;PMS5003;41136;51.478;-2.610;2023-04-03T06:52:37;11;11;
55276;PMS5003;41136;51.478;-2.610;2023-04-03T06:55:02;12;10;
55276;PMS5003;41136;51.478;-2.610;2023-04-03T06:57:28;11;8;
55276;PMS5003;41136;51.478;-2.610;2023-04-03T06:59:54;9;7;
55276;PMS5003;41136;51.478;-2.610;2023-04-03T07:02:19;12;10;
55276;PMS5003;41136;51.478;-2.610;2023-04-03T07:04:44;13;10;
55276;PMS5003;41136;51.478;-2.610;2023-04-03T07:07:10;12;11;
55276;PMS5003;41136;51.478;-2.610;2023-04-03T07:09:35;11;11;
55276;PMS5003;41136;51.478;-2.610;2023-04-03T07:12:01;13;13;
55276;PMS5003;41136;51.478;-2.610;2023-04-03T07:14:26;16;14;
55276;PMS5003;41136;51.478;-2.610;2023-04-03T07:16:51;13;11;
55276;PMS5003;41136;51.478;-2.610;2023-04-03T07:19:17;10;10;
55276;PMS5003;41136;51.478;-2.610;2023-04-03T07:21:42;12;9;
55276;PMS5003;41136;51.478;-2.610;2023-04-03T07:24:08;16;14;
55276;PMS5003;41136;51.478;-2.610;2023-04-03T07:26:33;12;11;
55276;PMS5003;41136;51.478;-2.610;2023-04-03T07:28:59;14;11;
55276;PMS5003;41136;51.478;-2.610;2023-04-03T07:31:24;9;9;
55276;PMS5003;41136;51.478;-2.610;2023-04-03T07:33:49;10;10;
55276;PMS5003;41136;51.478;-2.610;2023-04-03T07:36:17;13;10;
55276;PMS5003;41136;51.478;-2.610;2023-04-03T07:38:40;13;10;
55276;PMS5003;41136;51.478;-2.610;2023-04-03T07:41:06;11;11;
55276;PMS5003;41136;51.478;-2.610;2023-04-03T07:43:31;10;9;
55276;PMS5003;41136;51.478;-2.610;2023-04-03T07:45:57;12;12;
55276;PMS5003;41136;51.478;-2.610;2023-04-03T07:48:23;8;8;
55276;PMS5003;41136;51.478;-2.610;2023-04-03T07:50:47;11;11;
55276;PMS5003;41136;51.478;-2.610;2023-04-03T07:53:13;11;11;
55276;PMS5003;41136;51.478;-2.610;2023-04-03T07:55:38;11;9;
55276;PMS5003;41136;51.478;-2.610;2023-04-03T07:58:03;11;11;
55276;PMS5003;41136;51.478;-2.610;2023-04-03T08:00:28;8;8;
55276;PMS5003;41136;51.478;-2.610;2023-04-03T08:02:54;8;7;
55276;PMS5003;41136;51.478;-2.610;2023-04-03T08:05:20;10;8;
55276;PMS5003;41136;51.478;-2.610;2023-04-03T08:07:45;7;7;
55276;PMS5003;41136;51.478;-2.610;2023-04-03T08:10:10;8;8;
55276;PMS5003;41136;51.478;-2.610;2023-04-03T08:12:36;9;9;
55276;PMS5003;41136;51.478;-2.610;2023-04-03T08:15:01;8;8;
55276;PMS5003;41136;51.478;-2.610;2023-04-03T08:17:27;8;7;
55276;PMS5003;41136;51.478;-2.610;2023-04-03T08:19:52;8;7;
55276;PMS5003;41136;51.478;-2.610;2023-04-03T08:22:17;5;5;
55276;PMS5003;41136;51.478;-2.610;2023-04-03T08:24:43;8;6;
55276;PMS5003;41136;51.478;-2.610;2023-04-03T08:27:08;9;6;
55276;PMS5003;41136;51.478;-2.610;2023-04-03T08:29:34;5;5;
55276;PMS5003;41136;51.478;-2.610;2023-04-03T08:31:59;9;7;
55276;PMS5003;41136;51.478;-2.610;2023-04-03T08:34:26;4;4;
55276;PMS5003;41136;51.478;-2.610;2023-04-03T08:36:50;8;7;
55276;PMS5003;41136;51.478;-2.610;2023-04-03T08:39:15;6;6;
55276;PMS5003;41136;51.478;-2.610;2023-04-03T08:41:41;7;7;
55276;PMS5003;41136;51.478;-2.610;2023-04-03T08:44:11;6;5;
55276;PMS5003;41136;51.478;-2.610;2023-04-03T08:46:35;5;5;
55276;PMS5003;41136;51.478;-2.610;2023-04-03T08:48:57;7;7;
55276;PMS5003;41136;51.478;-2.610;2023-04-03T08:51:22;9;6;
55276;PMS5003;41136;51.478;-2.610;2023-04-03T08:53:50;6;6;
55276;PMS5003;41136;51.478;-2.610;2023-04-03T08:56:13;5;5;
55276;PMS5003;41136;51.478;-2.610;2023-04-03T08:58:41;8;7;
55276;PMS5003;41136;51.478;-2.610;2023-04-03T09:01:05;6;4;
55276;PMS5003;41136;51.478;-2.610;2023-04-03T09:03:30;5;5;
55276;PMS5003;41136;51.478;-2.610;2023-04-03T09:05:55;6;6;
55276;PMS5003;41136;51.478;-2.610;2023-04-03T09:08:22;6;6;
55276;PMS5003;41136;51.478;-2.610;2023-04-03T09:10:45;7;5;
55276;PMS5003;41136;51.478;-2.610;2023-04-03T09:13:12;8;7;
55276;PMS5003;41136;51.478;-2.610;2023-04-03T09:15:36;5;5;
55276;PMS5003;41136;51.478;-2.610;2023-04-03T09:18:03;9;8;
55276;PMS5003;41136;51.478;-2.610;2023-04-03T09:20:30;5;5;
55276;PMS5003;41136;51.478;-2.610;2023-04-03T09:22:52;7;7;
55276;PMS5003;41136;51.478;-2.610;2023-04-03T09:25:19;8;8;
55276;PMS5003;41136;51.478;-2.610;2023-04-03T09:27:43;8;8;
55276;PMS5003;41136;51.478;-2.610;2023-04-03T09:30:11;7;4;
55276;PMS5003;41136;51.478;-2.610;2023-04-03T09:32:34;9;6;
55276;PMS5003;41136;51.478;-2.610;2023-04-03T09:35:01;7;7;
55276;PMS5003;41136;51.478;-2.610;2023-04-03T09:39:51;11;8;
55276;PMS5003;41136;51.478;-2.610;2023-04-03T09:42:16;9;9;
55276;PMS5003;41136;51.478;-2.610;2023-04-03T09:44:41;11;8;
55276;PMS5003;41136;51.478;-2.610;2023-04-03T09:49:31;8;7;
55276;PMS5003;41136;51.478;-2.610;2023-04-03T09:51:57;11;9;
55276;PMS5003;41136;51.478;-2.610;2023-04-03T09:54:24;10;10;
55276;PMS5003;41136;51.478;-2.610;2023-04-03T09:56:49;14;12;
55276;PMS5003;41136;51.478;-2.610;2023-04-03T09:59:14;11;9;
55276;PMS5003;41136;51.478;-2.610;2023-04-03T10:01:39;13;11;
55276;PMS5003;41136;51.478;-2.610;2023-04-03T10:04:07;11;11;
55276;PMS5003;41136;51.478;-2.610;2023-04-03T10:06:31;12;11;
55276;PMS5003;41136;51.478;-2.610;2023-04-03T10:08:58;12;11;
55276;PMS5003;41136;51.478;-2.610;2023-04-03T10:11:20;10;10;
55276;PMS5003;41136;51.478;-2.610;2023-04-03T10:16:11;11;11;
55276;PMS5003;41136;51.478;-2.610;2023-04-03T10:18:38;12;12;
55276;PMS5003;41136;51.478;-2.610;2023-04-03T10:21:02;9;9;
55276;PMS5003;41136;51.478;-2.610;2023-04-03T10:23:27;11;10;
55276;PMS5003;41136;51.478;-2.610;2023-04-03T10:25:55;11;10;
55276;PMS5003;41136;51.478;-2.610;2023-04-03T10:28:18;15;11;
55276;PMS5003;41136;51.478;-2.610;2023-04-03T10:30:45;13;11;
55276;PMS5003;41136;51.478;-2.610;2023-04-03T10:33:13;15;12;
55276;PMS5003;41136;51.478;-2.610;2023-04-03T10:35:36;10;10;
55276;PMS5003;41136;51.478;-2.610;2023-04-03T10:38:01;12;11;
55276;PMS5003;41136;51.478;-2.610;2023-04-03T10:40:25;12;11;
55276;PMS5003;41136;51.478;-2.610;2023-04-03T10:42:49;13;11;
55276;PMS5003;41136;51.478;-2.610;2023-04-03T10:45:17;11;11;
55276;PMS5003;41136;51.478;-2.610;2023-04-03T10:47:40;11;11;
55276;PMS5003;41136;51.478;-2.610;2023-04-03T10:50:09;11;11;
55276;PMS5003;41136;51.478;-2.610;2023-04-03T10:52:32;13;11;
55276;PMS5003;41136;51.478;-2.610;2023-04-03T10:54:57;14;14;
55276;PMS5003;41136;51.478;-2.610;2023-04-03T10:57:21;14;12;
55276;PMS5003;41136;51.478;-2.610;2023-04-03T10:59:47;13;12;
55276;PMS5003;41136;51.478;-2.610;2023-04-03T11:02:14;10;10;
55276;PMS5003;41136;51.478;-2.610;2023-04-03T11:04:38;13;12;
55276;PMS5003;41136;51.478;-2.610;2023-04-03T11:07:03;15;12;
55276;PMS5003;41136;51.478;-2.610;2023-04-03T11:09:28;10;10;
55276;PMS5003;41136;51.478;-2.610;2023-04-03T11:11:54;12;12;
55276;PMS5003;41136;51.478;-2.610;2023-04-03T11:14:20;15;13;
55276;PMS5003;41136;51.478;-2.610;2023-04-03T11:16:44;13;13;
55276;PMS5003;41136;51.478;-2.610;2023-04-03T11:19:10;12;12;
55276;PMS5003;41136;51.478;-2.610;2023-04-03T11:21:34;12;12;
55276;PMS5003;41136;51.478;-2.610;2023-04-03T11:23:59;13;11;
55276;PMS5003;41136;51.478;-2.610;2023-04-03T11:26:25;17;16;
55276;PMS5003;41136;51.478;-2.610;2023-04-03T11:28:52;13;12;
55276;PMS5003;41136;51.478;-2.610;2023-04-03T11:31:19;15;12;
55276;PMS5003;41136;51.478;-2.610;2023-04-03T11:33:42;14;14;
55276;PMS5003;41136;51.478;-2.610;2023-04-03T11:36:06;11;11;
55276;PMS5003;41136;51.478;-2.610;2023-04-03T11:38:31;15;12;
55276;PMS5003;41136;51.478;-2.610;2023-04-03T11:40:56;15;12;
55276;PMS5003;41136;51.478;-2.610;2023-04-03T11:43:22;9;9;
55276;PMS5003;41136;51.478;-2.610;2023-04-03T11:45:50;11;11;
55276;PMS5003;41136;51.478;-2.610;2023-04-03T11:50:41;13;11;
55276;PMS5003;41136;51.478;-2.610;2023-04-03T11:53:10;11;10;
55276;PMS5003;41136;51.478;-2.610;2023-04-03T12:02:43;11;11;
55276;PMS5003;41136;51.478;-2.610;2023-04-03T12:07:34;13;12;
55276;PMS5003;41136;51.478;-2.610;2023-04-03T12:10:00;13;12;
55276;PMS5003;41136;51.478;-2.610;2023-04-03T12:12:28;11;9;
55276;PMS5003;41136;51.478;-2.610;2023-04-03T12:14:51;12;12;
55276;PMS5003;41136;51.478;-2.610;2023-04-03T12:17:19;13;11;
55276;PMS5003;41136;51.478;-2.610;2023-04-03T12:19:41;13;13;
55276;PMS5003;41136;51.478;-2.610;2023-04-03T12:22:08;12;12;
55276;PMS5003;41136;51.478;-2.610;2023-04-03T12:24:32;13;13;
55276;PMS5003;41136;51.478;-2.610;2023-04-03T12:29:23;12;12;
55276;PMS5003;41136;51.478;-2.610;2023-04-03T12:31:50;13;13;
55276;PMS5003;41136;51.478;-2.610;2023-04-03T12:34:17;12;10;
55276;PMS5003;41136;51.478;-2.610;2023-04-03T12:36:41;12;12;
55276;PMS5003;41136;51.478;-2.610;2023-04-03T12:39:06;13;12;
55276;PMS5003;41136;51.478;-2.610;2023-04-03T12:41:31;16;14;
55276;PMS5003;41136;51.478;-2.610;2023-04-03T12:43:59;13;13;
55276;PMS5003;41136;51.478;-2.610;2023-04-03T12:46:21;13;13;
55276;PMS5003;41136;51.478;-2.610;2023-04-03T12:48:47;10;10;
55276;PMS5003;41136;51.478;-2.610;2023-04-03T12:51:12;12;9;
55276;PMS5003;41136;51.478;-2.610;2023-04-03T12:53:35;15;12;
55276;PMS5003;41136;51.478;-2.610;2023-04-03T12:58:27;13;13;
55276;PMS5003;41136;51.478;-2.610;2023-04-03T13:03:21;15;12;
55276;PMS5003;41136;51.478;-2.610;2023-04-03T13:05:43;14;13;
55276;PMS5003;41136;51.478;-2.610;2023-04-03T13:08:08;12;12;
55276;PMS5003;41136;51.478;-2.610;2023-04-03T13:10:32;16;14;
55276;PMS5003;41136;51.478;-2.610;2023-04-03T13:12:58;27;19;
55276;PMS5003;41136;51.478;-2.610;2023-04-03T13:15:23;16;14;
55276;PMS5003;41136;51.478;-2.610;2023-04-03T13:17:48;14;12;
55276;PMS5003;41136;51.478;-2.610;2023-04-03T13:20:15;13;13;
55276;PMS5003;41136;51.478;-2.610;2023-04-03T13:22:39;16;16;
55276;PMS5003;41136;51.478;-2.610;2023-04-03T13:25:05;19;14;
55276;PMS5003;41136;51.478;-2.610;2023-04-03T13:27:30;12;12;
55276;PMS5003;41136;51.478;-2.610;2023-04-03T13:29:56;14;13;
55276;PMS5003;41136;51.478;-2.610;2023-04-03T13:32:21;19;17;
55276;PMS5003;41136;51.478;-2.610;2023-04-03T13:34:45;19;18;
55276;PMS5003;41136;51.478;-2.610;2023-04-03T13:39:36;16;15;
55276;PMS5003;41136;51.478;-2.610;2023-04-03T13:42:02;13;13;
55276;PMS5003;41136;51.478;-2.610;2023-04-03T13:44:31;15;14;
55276;PMS5003;41136;51.478;-2.610;2023-04-03T13:46:52;14;14;
55276;PMS5003;41136;51.478;-2.610;2023-04-03T13:49:18;16;16;
55276;PMS5003;41136;51.478;-2.610;2023-04-03T13:51:42;15;14;
55276;PMS5003;41136;51.478;-2.610;2023-04-03T13:54:15;15;15;
55276;PMS5003;41136;51.478;-2.610;2023-04-03T13:56:33;18;18;
55276;PMS5003;41136;51.478;-2.610;2023-04-03T13:59:00;19;16;
55276;PMS5003;41136;51.478;-2.610;2023-04-03T14:01:24;18;18;
55276;PMS5003;41136;51.478;-2.610;2023-04-03T14:03:52;17;17;
55276;PMS5003;41136;51.478;-2.610;2023-04-03T14:06:15;17;15;
55276;PMS5003;41136;51.478;-2.610;2023-04-03T14:08:39;15;13;
55276;PMS5003;41136;51.478;-2.610;2023-04-03T14:11:05;16;15;
55276;PMS5003;41136;51.478;-2.610;2023-04-03T14:13:31;18;17;
55276;PMS5003;41136;51.478;-2.610;2023-04-03T14:15:56;14;14;
55276;PMS5003;41136;51.478;-2.610;2023-04-03T14:18:21;19;17;
55276;PMS5003;41136;51.478;-2.610;2023-04-03T14:20:46;17;16;
55276;PMS5003;41136;51.478;-2.610;2023-04-03T14:23:11;19;18;
55276;PMS5003;41136;51.478;-2.610;2023-04-03T14:25:36;23;17;
55276;PMS5003;41136;51.478;-2.610;2023-04-03T14:28:06;15;15;
55276;PMS5003;41136;51.478;-2.610;2023-04-03T14:30:28;18;17;
55276;PMS5003;41136;51.478;-2.610;2023-04-03T14:32:53;18;17;
55276;PMS5003;41136;51.478;-2.610;2023-04-03T14:35:18;17;17;
55276;PMS5003;41136;51.478;-2.610;2023-04-03T14:37:44;16;16;
55276;PMS5003;41136;51.478;-2.610;2023-04-03T14:40:11;20;18;
55276;PMS5003;41136;51.478;-2.610;2023-04-03T14:42:35;23;18;
55276;PMS5003;41136;51.478;-2.610;2023-04-03T14:45:00;25;21;
55276;PMS5003;41136;51.478;-2.610;2023-04-03T14:47:26;16;16;
55276;PMS5003;41136;51.478;-2.610;2023-04-03T14:49:50;16;16;
55276;PMS5003;41136;51.478;-2.610;2023-04-03T14:52:18;19;19;
55276;PMS5003;41136;51.478;-2.610;2023-04-03T14:54:41;18;16;
55276;PMS5003;41136;51.478;-2.610;2023-04-03T14:57:08;19;18;
55276;PMS5003;41136;51.478;-2.610;2023-04-03T14:59:32;16;16;
55276;PMS5003;41136;51.478;-2.610;2023-04-03T15:01:57;17;17;
55276;PMS5003;41136;51.478;-2.610;2023-04-03T15:04:22;20;19;
55276;PMS5003;41136;51.478;-2.610;2023-04-03T15:06:48;18;17;
55276;PMS5003;41136;51.478;-2.610;2023-04-03T15:09:17;16;16;
55276;PMS5003;41136;51.478;-2.610;2023-04-03T15:11:39;15;13;
55276;PMS5003;41136;51.478;-2.610;2023-04-03T15:14:04;18;17;
55276;PMS5003;41136;51.478;-2.610;2023-04-03T15:16:30;19;17;
55276;PMS5003;41136;51.478;-2.610;2023-04-03T15:18:55;20;16;
55276;PMS5003;41136;51.478;-2.610;2023-04-03T15:21:20;16;16;
55276;PMS5003;41136;51.478;-2.610;2023-04-03T15:23:45;17;15;
55276;PMS5003;41136;51.478;-2.610;2023-04-03T15:26:11;14;14;
55276;PMS5003;41136;51.478;-2.610;2023-04-03T15:28:37;16;15;
55276;PMS5003;41136;51.478;-2.610;2023-04-03T15:31:02;22;20;
55276;PMS5003;41136;51.478;-2.610;2023-04-03T15:33:27;17;17;
55276;PMS5003;41136;51.478;-2.610;2023-04-03T15:35:52;19;19;
55276;PMS5003;41136;51.478;-2.610;2023-04-03T15:38:17;15;15;
55276;PMS5003;41136;51.478;-2.610;2023-04-03T15:40:42;17;17;
55276;PMS5003;41136;51.478;-2.610;2023-04-03T15:43:08;14;14;
55276;PMS5003;41136;51.478;-2.610;2023-04-03T15:45:33;17;16;
55276;PMS5003;41136;51.478;-2.610;2023-04-03T15:47:58;23;19;
55276;PMS5003;41136;51.478;-2.610;2023-04-03T15:50:23;20;18;
55276;PMS5003;41136;51.478;-2.610;2023-04-03T15:52:48;25;21;
55276;PMS5003;41136;51.478;-2.610;2023-04-03T15:58:49;21;20;
55276;PMS5003;41136;51.478;-2.610;2023-04-03T16:01:14;21;21;
55276;PMS5003;41136;51.478;-2.610;2023-04-03T16:03:39;22;20;
55276;PMS5003;41136;51.478;-2.610;2023-04-03T16:06:04;23;22;
55276;PMS5003;41136;51.478;-2.610;2023-04-03T16:08:30;20;18;
55276;PMS5003;41136;51.478;-2.610;2023-04-03T16:13:28;20;15;
55276;PMS5003;41136;51.478;-2.610;2023-04-03T16:15:54;18;18;
55276;PMS5003;41136;51.478;-2.610;2023-04-03T16:18:20;21;21;
55276;PMS5003;41136;51.478;-2.610;2023-04-03T16:22:53;21;21;
55276;PMS5003;41136;51.478;-2.610;2023-04-03T16:27:13;15;15;
55276;PMS5003;41136;51.478;-2.610;2023-04-03T16:29:39;23;19;
55276;PMS5003;41136;51.478;-2.610;2023-04-03T16:34:00;21;18;
55276;PMS5003;41136;51.478;-2.610;2023-04-03T16:36:25;21;19;
55276;PMS5003;41136;51.478;-2.610;2023-04-03T16:46:56;20;20;
55276;PMS5003;41136;51.478;-2.610;2023-04-03T16:49:22;19;19;
55276;PMS5003;41136;51.478;-2.610;2023-04-03T16:51:48;20;19;
55276;PMS5003;41136;51.478;-2.610;2023-04-03T17:12:51;21;18;
55276;PMS5003;41136;51.478;-2.610;2023-04-03T17:18:14;24;23;
55276;PMS5003;41136;51.478;-2.610;2023-04-03T17:23:11;29;23;
55276;PMS5003;41136;51.478;-2.610;2023-04-03T17:27:30;18;18;